createdAt,value
2023-01-17T00:02:26.682Z,7.70
2023-01-17T00:05:14.111Z,7.67
2023-01-17T00:08:01.894Z,7.80
2023-01-17T00:10:28.805Z,7.53
2023-01-17T00:12:59.727Z,7.30
2023-01-17T00:15:27.154Z,6.90
2023-01-17T00:17:54.035Z,7.67
2023-01-17T00:20:43.762Z,8.00
2023-01-17T00:24:00.450Z,7.33
2023-01-17T00:26:27.226Z,7.63
2023-01-17T00:28:53.946Z,8.20
2023-01-17T00:31:23.003Z,8.40
2023-01-17T00:33:49.762Z,8.00
2023-01-17T00:36:18.929Z,7.77
2023-01-17T00:38:45.648Z,8.53
2023-01-17T00:41:13.620Z,8.60
2023-01-17T00:44:03.895Z,8.70
2023-01-17T00:46:49.431Z,8.23
2023-01-17T00:49:34.651Z,9.17
2023-01-17T00:52:20.041Z,8.93
2023-01-17T00:55:05.423Z,9.43
2023-01-17T00:57:53.323Z,9.30
2023-01-17T01:00:38.695Z,9.77
2023-01-17T01:03:28.843Z,9.90
2023-01-17T01:06:14.097Z,10.30
2023-01-17T01:08:59.381Z,10.90
2023-01-17T01:11:47.282Z,11.63
2023-01-17T01:14:35.216Z,11.00
2023-01-17T01:17:20.773Z,11.80
2023-01-17T01:20:08.496Z,12.47
2023-01-17T01:22:56.239Z,12.10
2023-01-17T01:25:41.446Z,12.17
2023-01-17T01:28:30.041Z,12.30
2023-01-17T01:31:17.675Z,11.90
2023-01-17T01:33:44.487Z,12.40
2023-01-17T01:36:14.050Z,11.50
2023-01-17T01:38:40.815Z,12.33
2023-01-17T01:41:07.580Z,12.87
2023-01-17T01:43:48.380Z,11.80
2023-01-17T01:46:39.092Z,12.40
2023-01-17T01:49:17.888Z,12.60
2023-01-17T01:51:52.866Z,11.90
2023-01-17T01:54:32.315Z,11.53
2023-01-17T01:57:02.225Z,12.37
2023-01-17T01:59:30.979Z,11.70
2023-01-17T02:01:58.411Z,11.70
2023-01-17T02:04:25.747Z,10.93
2023-01-17T02:06:56.482Z,12.13
2023-01-17T02:09:27.872Z,11.57
2023-01-17T02:11:55.001Z,11.20
2023-01-17T02:14:24.646Z,11.10
2023-01-17T02:16:57.049Z,11.43
2023-01-17T02:19:26.020Z,10.97
2023-01-17T02:22:31.326Z,11.77
2023-01-17T02:24:58.076Z,11.43
2023-01-17T02:27:25.849Z,11.07
2023-01-17T02:30:20.892Z,11.43
2023-01-17T02:32:50.832Z,10.77
2023-01-17T02:35:25.592Z,11.33
2023-01-17T02:38:31.294Z,11.80
2023-01-17T02:41:16.723Z,10.90
2023-01-17T02:43:43.526Z,11.30
2023-01-17T02:46:10.375Z,10.53
2023-01-17T02:48:39.749Z,10.93
2023-01-17T02:51:12.657Z,11.30
2023-01-17T02:54:09.785Z,10.87
2023-01-17T02:56:45.011Z,11.27
2023-01-17T02:59:19.415Z,10.93
2023-01-17T03:02:04.557Z,10.73
2023-01-17T03:04:59.950Z,11.33
2023-01-17T03:07:27.295Z,11.03
2023-01-17T03:09:59.239Z,12.03
2023-01-17T03:12:29.937Z,11.13
2023-01-17T03:14:56.773Z,11.20
2023-01-17T03:17:24.962Z,11.37
2023-01-17T03:19:51.787Z,11.23
2023-01-17T03:22:18.596Z,11.50
2023-01-17T03:24:45.383Z,11.37
2023-01-17T03:27:12.214Z,11.10
2023-01-17T03:29:41.371Z,11.07
2023-01-17T03:32:14.835Z,11.23
2023-01-17T03:34:41.603Z,10.57
2023-01-17T03:37:08.407Z,11.10
2023-01-17T03:39:35.149Z,9.93
2023-01-17T03:42:04.341Z,11.00
2023-01-17T03:44:31.216Z,11.97
2023-01-17T03:46:58.040Z,11.23
2023-01-17T03:49:24.810Z,11.67
2023-01-17T03:51:51.606Z,11.20
2023-01-17T03:54:18.460Z,10.53
2023-01-17T03:56:45.280Z,11.43
2023-01-17T03:59:14.472Z,10.73
2023-01-17T04:01:41.363Z,10.87
2023-01-17T04:04:08.200Z,10.37
2023-01-17T04:06:34.963Z,11.03
2023-01-17T04:09:01.811Z,10.27
2023-01-17T04:11:28.627Z,10.53
2023-01-17T04:13:55.499Z,10.50
2023-01-17T04:16:22.322Z,10.33
2023-01-17T04:18:49.146Z,10.97
2023-01-17T04:21:15.914Z,10.07
2023-01-17T04:23:42.713Z,10.17
2023-01-17T04:26:12.028Z,10.40
2023-01-17T04:28:41.305Z,9.83
2023-01-17T04:31:09.156Z,10.40
2023-01-17T04:33:36.057Z,9.93
2023-01-17T04:36:04.995Z,9.73
2023-01-17T04:38:35.211Z,10.13
2023-01-17T04:41:02.026Z,10.47
2023-01-17T04:43:28.841Z,10.47
2023-01-17T04:45:56.539Z,10.30
2023-01-17T04:48:26.227Z,9.60
2023-01-17T04:51:00.226Z,9.70
2023-01-17T04:53:27.067Z,9.60
2023-01-17T04:55:53.835Z,10.33
2023-01-17T04:58:25.347Z,10.43
2023-01-17T05:00:52.749Z,9.90
2023-01-17T05:03:20.291Z,10.00
2023-01-17T05:05:47.641Z,9.60
2023-01-17T05:08:14.735Z,10.10
2023-01-17T05:10:43.775Z,9.93
2023-01-17T05:13:16.542Z,10.63
2023-01-17T05:15:43.578Z,10.90
2023-01-17T05:18:16.498Z,10.40
2023-01-17T05:20:43.351Z,10.10
2023-01-17T05:23:10.552Z,10.57
2023-01-17T05:25:37.359Z,10.87
2023-01-17T05:28:06.699Z,10.10
2023-01-17T05:30:33.783Z,10.57
2023-01-17T05:33:00.664Z,10.63
2023-01-17T05:35:32.753Z,10.20
2023-01-17T05:38:02.626Z,10.53
2023-01-17T05:40:32.960Z,10.63
2023-01-17T05:43:00.209Z,10.70
2023-01-17T05:45:31.615Z,10.97
2023-01-17T05:48:01.017Z,9.90
2023-01-17T05:50:30.181Z,11.13
2023-01-17T05:52:58.601Z,10.47
2023-01-17T05:55:25.833Z,9.53
2023-01-17T05:57:52.895Z,11.00
2023-01-17T06:00:22.239Z,10.13
2023-01-17T06:02:49.197Z,9.30
2023-01-17T06:05:16.140Z,10.27
2023-01-17T06:07:46.247Z,9.90
2023-01-17T06:10:14.566Z,9.87
2023-01-17T06:12:44.420Z,9.73
2023-01-17T06:15:11.530Z,9.87
2023-01-17T06:17:38.347Z,10.30
2023-01-17T06:20:08.307Z,9.90
2023-01-17T06:22:35.205Z,9.50
2023-01-17T06:25:02.014Z,10.20
2023-01-17T06:27:28.930Z,9.87
2023-01-17T06:29:55.795Z,9.37
2023-01-17T06:32:24.841Z,10.30
2023-01-17T06:34:51.672Z,9.77
2023-01-17T06:37:23.025Z,10.13
2023-01-17T06:39:49.795Z,10.80
2023-01-17T06:42:18.880Z,10.03
2023-01-17T06:44:45.676Z,10.53
2023-01-17T06:47:17.103Z,10.10
2023-01-17T06:49:46.145Z,10.07
2023-01-17T06:52:12.980Z,9.83
2023-01-17T06:54:42.241Z,9.63
2023-01-17T06:57:11.268Z,9.53
2023-01-17T06:59:38.158Z,10.03
2023-01-17T07:02:07.552Z,10.50
2023-01-17T07:04:34.798Z,10.03
2023-01-17T07:07:01.674Z,10.33
2023-01-17T07:09:30.646Z,9.53
2023-01-17T07:12:01.915Z,9.10
2023-01-17T07:14:29.112Z,9.77
2023-01-17T07:16:58.709Z,9.33
2023-01-17T07:19:25.528Z,9.60
2023-01-17T07:21:53.011Z,9.30
2023-01-17T07:24:20.490Z,10.43
2023-01-17T07:26:53.424Z,9.30
2023-01-17T07:29:20.191Z,9.20
2023-01-17T07:31:48.651Z,8.70
2023-01-17T07:34:15.505Z,9.50
2023-01-17T07:36:42.309Z,8.60
2023-01-17T07:39:12.186Z,8.63
2023-01-17T07:41:41.489Z,9.13
2023-01-17T07:44:12.341Z,9.57
2023-01-17T07:46:39.388Z,9.30
2023-01-17T07:49:08.366Z,9.67
2023-01-17T07:51:38.164Z,8.70
2023-01-17T07:54:04.979Z,8.60
2023-01-17T07:56:34.147Z,8.57
2023-01-17T07:59:03.880Z,8.83
2023-01-17T08:01:30.879Z,8.37
2023-01-17T08:03:57.894Z,8.40
2023-01-17T08:06:27.231Z,9.00
2023-01-17T08:08:58.998Z,9.27
2023-01-17T08:11:28.413Z,9.13
2023-01-17T08:13:59.345Z,8.90
2023-01-17T08:16:26.926Z,9.23
2023-01-17T08:18:54.827Z,8.23
2023-01-17T08:21:21.599Z,8.63
2023-01-17T08:23:51.144Z,8.63
2023-01-17T08:26:22.234Z,8.30
2023-01-17T08:28:56.738Z,8.97
2023-01-17T08:31:26.315Z,9.10
2023-01-17T08:33:56.221Z,8.60
2023-01-17T08:36:25.671Z,8.17
2023-01-17T08:38:55.483Z,8.27
2023-01-17T08:41:24.830Z,8.47
2023-01-17T08:43:56.904Z,8.00
2023-01-17T08:46:30.012Z,8.50
2023-01-17T08:49:02.873Z,7.83
2023-01-17T08:51:32.936Z,8.10
2023-01-17T08:53:59.766Z,7.77
2023-01-17T08:56:29.183Z,8.77
2023-01-17T08:58:55.996Z,8.57
2023-01-17T09:01:23.014Z,7.40
2023-01-17T09:03:51.435Z,8.07
2023-01-17T09:06:18.353Z,8.10
2023-01-17T09:08:50.397Z,8.00
2023-01-17T09:11:17.607Z,7.53
2023-01-17T09:13:46.946Z,7.13
2023-01-17T09:16:13.976Z,7.73
2023-01-17T09:18:43.253Z,7.67
2023-01-17T09:21:17.458Z,7.80
2023-01-17T09:23:44.436Z,6.90
2023-01-17T09:26:28.399Z,7.07
2023-01-17T09:28:58.738Z,7.50
2023-01-17T09:31:27.072Z,7.47
2023-01-17T09:33:59.677Z,7.07
2023-01-17T09:36:35.344Z,7.27
2023-01-17T09:39:04.852Z,7.23
2023-01-17T09:41:52.291Z,7.27
2023-01-17T09:44:29.742Z,7.67
2023-01-17T09:47:07.135Z,7.93
2023-01-17T09:49:41.865Z,7.63
2023-01-17T09:52:12.365Z,7.37
2023-01-17T09:54:40.863Z,7.60
2023-01-17T09:57:34.783Z,7.07
2023-01-17T10:00:13.593Z,7.40
2023-01-17T10:02:52.514Z,7.47
2023-01-17T10:05:34.527Z,7.50
2023-01-17T10:08:17.277Z,8.33
2023-01-17T10:11:09.958Z,8.47
2023-01-17T10:14:00.198Z,7.80
2023-01-17T10:16:57.352Z,7.87
2023-01-17T10:20:02.844Z,8.23
2023-01-17T10:22:38.559Z,7.97
2023-01-17T10:25:49.112Z,8.60
2023-01-17T10:28:33.558Z,9.20
2023-01-17T10:31:07.267Z,8.37
2023-01-17T10:33:54.382Z,7.83
2023-01-17T10:36:25.745Z,7.87
2023-01-17T10:39:04.196Z,8.37
2023-01-17T10:41:38.389Z,8.13
2023-01-17T10:44:37.384Z,7.57
2023-01-17T10:47:23.452Z,8.47
2023-01-17T10:49:58.408Z,8.47
2023-01-17T10:52:31.154Z,8.80
2023-01-17T10:55:29.577Z,9.33
2023-01-17T10:57:57.921Z,9.13
2023-01-17T11:01:10.619Z,8.50
2023-01-17T11:03:39.588Z,9.67
2023-01-17T11:06:16.192Z,9.53
2023-01-17T11:09:05.291Z,8.87
2023-01-17T11:11:33.646Z,8.77
2023-01-17T11:14:13.918Z,9.03
2023-01-17T11:16:42.815Z,9.17
2023-01-17T11:19:21.990Z,9.43
2023-01-17T11:22:07.249Z,9.33
2023-01-17T11:24:52.316Z,8.90
2023-01-17T11:27:34.668Z,9.10
2023-01-17T11:30:19.643Z,9.13
2023-01-17T11:32:56.524Z,9.30
2023-01-17T11:35:29.687Z,9.63
2023-01-17T11:38:20.121Z,9.53
2023-01-17T11:40:49.590Z,8.67
2023-01-17T11:43:25.712Z,8.57
2023-01-17T11:46:02.805Z,9.47
2023-01-17T11:48:37.495Z,9.23
2023-01-17T11:51:11.260Z,9.53
2023-01-17T11:53:38.621Z,9.40
2023-01-17T11:56:07.087Z,9.33
2023-01-17T11:58:37.341Z,9.70
2023-01-17T12:01:10.466Z,8.80
2023-01-17T12:03:58.516Z,10.07
2023-01-17T12:06:57.228Z,10.00
2023-01-17T12:09:36.379Z,10.27
2023-01-17T12:12:24.652Z,10.27
2023-01-17T12:15:03.409Z,10.27
2023-01-17T12:17:53.812Z,11.23
2023-01-17T12:20:34.340Z,9.93
2023-01-17T12:23:08.351Z,9.77
2023-01-17T12:26:23.890Z,10.03
2023-01-17T12:28:57.531Z,10.87
2023-01-17T12:31:29.729Z,10.93
2023-01-17T12:34:38.808Z,10.67
2023-01-17T12:37:17.932Z,10.50
2023-01-17T12:39:49.673Z,10.53
2023-01-17T12:42:25.459Z,11.77
2023-01-17T12:45:15.428Z,10.77
2023-01-17T12:47:48.045Z,11.73
2023-01-17T12:50:23.783Z,10.73
2023-01-17T12:52:54.700Z,10.83
2023-01-17T12:55:34.809Z,10.77
2023-01-17T12:58:04.631Z,11.20
2023-01-17T13:00:31.470Z,11.83
2023-01-17T13:03:01.258Z,11.30
2023-01-17T13:05:38.779Z,11.27
2023-01-17T13:08:10.124Z,11.20
2023-01-17T13:10:47.806Z,11.47
2023-01-17T13:13:22.481Z,11.40
2023-01-17T13:15:58.110Z,11.13
2023-01-17T13:18:27.084Z,11.57
2023-01-17T13:20:54.715Z,11.07
2023-01-17T13:23:38.600Z,11.07
2023-01-17T13:26:06.659Z,11.23
2023-01-17T13:28:42.177Z,11.50
2023-01-17T13:31:24.349Z,11.83
2023-01-17T13:33:57.375Z,11.00
2023-01-17T13:36:42.190Z,11.90
2023-01-17T13:39:24.485Z,11.40
2023-01-17T13:41:56.273Z,12.13
2023-01-17T13:44:27.281Z,11.37
2023-01-17T13:46:54.010Z,11.53
2023-01-17T13:49:42.358Z,10.83
2023-01-17T13:52:12.129Z,10.90
2023-01-17T13:54:51.741Z,11.27
2023-01-17T13:57:27.326Z,11.20
2023-01-17T13:59:59.105Z,11.03
2023-01-17T14:02:31.856Z,11.70
2023-01-17T14:05:20.595Z,11.60
2023-01-17T14:08:03.022Z,11.37
2023-01-17T14:10:39.329Z,11.57
2023-01-17T14:13:24.880Z,11.47
2023-01-17T14:15:54.164Z,12.10
2023-01-17T14:18:30.059Z,11.40
2023-01-17T14:21:08.108Z,11.20
2023-01-17T14:23:48.531Z,11.43
2023-01-17T14:26:42.744Z,12.07
2023-01-17T14:29:47.146Z,11.63
2023-01-17T14:32:16.200Z,11.27
2023-01-17T14:34:47.388Z,12.20
2023-01-17T14:37:20.334Z,12.07
2023-01-17T14:39:50.711Z,11.67
2023-01-17T14:42:21.886Z,12.13
2023-01-17T14:45:07.125Z,11.67
2023-01-17T14:47:39.495Z,12.37
2023-01-17T14:50:19.220Z,12.50
2023-01-17T14:52:48.201Z,11.63
2023-01-17T14:55:19.970Z,11.97
2023-01-17T14:57:56.838Z,12.10
2023-01-17T15:00:29.254Z,13.27
2023-01-17T15:02:57.785Z,13.03
2023-01-17T15:05:25.565Z,12.97
2023-01-17T15:07:54.179Z,13.93
2023-01-17T15:10:30.271Z,13.50
2023-01-17T15:12:57.564Z,13.07
2023-01-17T15:15:27.593Z,12.63
2023-01-17T15:18:20.030Z,12.80
2023-01-17T15:21:01.913Z,13.20
2023-01-17T15:23:40.441Z,13.10
2023-01-17T15:26:08.360Z,12.73
2023-01-17T15:28:35.234Z,12.93
2023-01-17T15:31:09.177Z,13.40
2023-01-17T15:33:40.411Z,13.93
2023-01-17T15:36:17.037Z,13.57
2023-01-17T15:38:54.876Z,13.67
2023-01-17T15:41:23.021Z,12.67
2023-01-17T15:43:49.851Z,14.03
2023-01-17T15:46:30.133Z,13.87
2023-01-17T15:49:26.642Z,14.47
2023-01-17T15:52:04.836Z,12.77
2023-01-17T15:54:44.500Z,13.27
2023-01-17T15:57:32.590Z,13.60
2023-01-17T16:00:32.700Z,13.97
2023-01-17T16:02:59.740Z,14.13
2023-01-17T16:05:31.113Z,13.63
2023-01-17T16:08:04.577Z,14.43
2023-01-17T16:10:40.378Z,14.90
2023-01-17T16:13:08.651Z,14.20
2023-01-17T16:15:36.172Z,14.73
2023-01-17T16:18:07.657Z,15.63
2023-01-17T16:20:35.357Z,15.40
2023-01-17T16:23:02.681Z,15.67
2023-01-17T16:25:32.893Z,15.83
2023-01-17T16:27:59.975Z,16.23
2023-01-17T16:30:26.868Z,16.63
2023-01-17T16:32:53.714Z,16.87
2023-01-17T16:35:22.709Z,15.77
2023-01-17T16:37:54.482Z,15.87
2023-01-17T16:40:22.781Z,15.73
2023-01-17T16:42:49.650Z,16.77
2023-01-17T16:45:17.005Z,16.23
2023-01-17T16:47:47.344Z,18.00
2023-01-17T16:50:18.530Z,16.60
2023-01-17T16:52:48.354Z,17.67
2023-01-17T16:55:15.977Z,17.83
2023-01-17T16:57:42.878Z,17.33
2023-01-17T17:00:10.640Z,16.77
2023-01-17T17:02:40.747Z,19.00
2023-01-17T17:05:10.771Z,16.83
2023-01-17T17:07:42.821Z,17.57
2023-01-17T17:10:10.594Z,17.43
2023-01-17T17:12:37.393Z,17.57
2023-01-17T17:15:07.139Z,17.77
2023-01-17T17:17:41.065Z,18.90
2023-01-17T17:20:12.560Z,18.93
2023-01-17T17:22:40.258Z,19.57
2023-01-17T17:25:12.453Z,18.90
2023-01-17T17:27:39.217Z,18.13
2023-01-17T17:30:06.638Z,18.57
2023-01-17T17:32:33.455Z,18.03
2023-01-17T17:35:00.525Z,17.60
2023-01-17T17:37:29.413Z,22.27
2023-01-17T17:39:58.723Z,17.37
2023-01-17T17:42:27.717Z,18.13
2023-01-17T17:44:54.531Z,16.00
2023-01-17T17:47:21.345Z,17.13
2023-01-17T17:49:48.196Z,17.37
2023-01-17T17:52:16.853Z,17.07
2023-01-17T17:54:43.622Z,16.93
2023-01-17T17:57:12.680Z,18.13
2023-01-17T17:59:41.989Z,17.43
2023-01-17T18:02:11.065Z,17.40
2023-01-17T18:04:41.107Z,17.30
2023-01-17T18:07:07.948Z,17.60
2023-01-17T18:09:34.801Z,17.90
2023-01-17T18:12:04.086Z,17.73
2023-01-17T18:14:31.175Z,17.47
2023-01-17T18:16:58.003Z,16.87
2023-01-17T18:19:25.309Z,17.10
2023-01-17T18:21:52.342Z,17.93
2023-01-17T18:24:20.871Z,17.60
2023-01-17T18:26:54.437Z,17.07
2023-01-17T18:29:21.728Z,16.90
2023-01-17T18:31:51.406Z,16.50
2023-01-17T18:34:24.329Z,16.70
2023-01-17T18:36:51.501Z,16.17
2023-01-17T18:39:22.363Z,17.23
2023-01-17T18:41:51.881Z,17.43
2023-01-17T18:44:22.237Z,16.47
2023-01-17T18:46:50.418Z,16.33
2023-01-17T18:49:19.235Z,17.53
2023-01-17T18:51:49.090Z,18.17
2023-01-17T18:54:16.533Z,18.20
2023-01-17T18:56:43.329Z,18.37
2023-01-17T18:59:12.296Z,18.80
2023-01-17T19:01:39.207Z,19.13
2023-01-17T19:04:06.224Z,19.60
2023-01-17T19:06:34.859Z,19.90
2023-01-17T19:09:01.753Z,18.47
2023-01-17T19:11:31.132Z,19.77
2023-01-17T19:13:57.974Z,19.77
2023-01-17T19:16:28.082Z,20.37
2023-01-17T19:18:58.755Z,20.00
2023-01-17T19:21:26.301Z,19.27
2023-01-17T19:23:53.491Z,21.10
2023-01-17T19:26:20.520Z,21.97
2023-01-17T19:28:48.203Z,21.63
2023-01-17T19:31:15.898Z,23.20
2023-01-17T19:33:44.924Z,22.57
2023-01-17T19:36:18.988Z,22.80
2023-01-17T19:38:58.662Z,22.80
2023-01-17T19:41:30.767Z,23.17
2023-01-17T19:44:01.223Z,23.30
2023-01-17T19:46:28.192Z,23.10
2023-01-17T19:48:55.595Z,24.07
2023-01-17T19:51:22.478Z,23.47
2023-01-17T19:53:49.305Z,24.23
2023-01-17T19:56:17.757Z,28.30
2023-01-17T19:58:45.011Z,24.43
2023-01-17T20:01:17.232Z,26.03
2023-01-17T20:03:44.584Z,25.60
2023-01-17T20:06:13.350Z,26.10
2023-01-17T20:08:40.644Z,25.80
2023-01-17T20:11:29.011Z,27.63
2023-01-17T20:13:57.054Z,25.07
2023-01-17T20:16:30.134Z,27.23
2023-01-17T20:19:02.583Z,26.40
2023-01-17T20:21:30.280Z,26.93
2023-01-17T20:23:57.855Z,27.67
2023-01-17T20:26:34.924Z,27.67
2023-01-17T20:29:06.905Z,28.50
2023-01-17T20:31:38.236Z,28.90
2023-01-17T20:34:05.335Z,28.67
2023-01-17T20:36:33.186Z,30.13
2023-01-17T20:39:00.905Z,29.00
2023-01-17T20:41:34.822Z,27.20
2023-01-17T20:44:02.153Z,29.77
2023-01-17T20:46:33.233Z,29.77
2023-01-17T20:49:02.694Z,29.47
2023-01-17T20:51:29.776Z,29.40
2023-01-17T20:54:01.083Z,28.23
2023-01-17T20:56:29.985Z,28.23
2023-01-17T20:58:57.941Z,28.63
2023-01-17T21:01:27.329Z,29.53
2023-01-17T21:03:54.204Z,27.37
2023-01-17T21:06:22.239Z,27.67
2023-01-17T21:08:51.417Z,27.77
2023-01-17T21:11:27.990Z,27.53
2023-01-17T21:13:55.061Z,27.40
2023-01-17T21:16:25.689Z,29.07
2023-01-17T21:18:54.599Z,28.73
2023-01-17T21:21:22.851Z,28.93
2023-01-17T21:23:56.897Z,28.30
2023-01-17T21:26:25.736Z,26.93
2023-01-17T21:28:52.663Z,28.10
2023-01-17T21:31:26.878Z,28.47
2023-01-17T21:33:53.723Z,29.37
2023-01-17T21:36:27.903Z,27.70
2023-01-17T21:38:57.025Z,27.23
2023-01-17T21:41:26.479Z,29.37
2023-01-17T21:44:01.944Z,29.67
2023-01-17T21:46:28.854Z,29.83
2023-01-17T21:48:58.169Z,28.77
2023-01-17T21:51:47.180Z,29.60
2023-01-17T21:54:14.000Z,30.47
2023-01-17T21:57:01.767Z,29.90
2023-01-17T21:59:32.903Z,30.13
2023-01-17T22:01:59.838Z,30.33
2023-01-17T22:04:31.038Z,29.63
2023-01-17T22:07:00.456Z,29.97
2023-01-17T22:09:29.372Z,29.83
2023-01-17T22:11:56.189Z,30.87
2023-01-17T22:14:25.220Z,28.03
2023-01-17T22:16:52.457Z,26.73
2023-01-17T22:19:19.407Z,27.43
2023-01-17T22:21:46.192Z,28.00
2023-01-17T22:24:16.863Z,26.97
2023-01-17T22:26:43.615Z,27.67
2023-01-17T22:29:10.841Z,27.33
2023-01-17T22:31:39.830Z,27.07
2023-01-17T22:34:06.642Z,26.90
2023-01-17T22:36:33.625Z,27.00
2023-01-17T22:39:00.517Z,28.10
2023-01-17T22:41:29.837Z,28.07
2023-01-17T22:43:58.641Z,29.90
2023-01-17T22:46:30.301Z,29.17
2023-01-17T22:48:57.293Z,29.53
2023-01-17T22:51:24.868Z,28.63
2023-01-17T22:53:53.261Z,29.23
2023-01-17T22:56:21.776Z,30.90
2023-01-17T22:58:49.136Z,30.27
2023-01-17T23:01:20.598Z,30.90
2023-01-17T23:03:52.202Z,31.53
2023-01-17T23:06:20.895Z,29.70
2023-01-17T23:08:49.391Z,32.03
2023-01-17T23:11:49.887Z,31.60
2023-01-17T23:14:29.571Z,31.50
2023-01-17T23:17:19.373Z,31.40
2023-01-17T23:19:52.919Z,31.20
2023-01-17T23:22:24.535Z,31.97
2023-01-17T23:24:57.958Z,31.77
2023-01-17T23:27:47.326Z,32.07
2023-01-17T23:30:15.084Z,32.33
2023-01-17T23:32:47.051Z,33.83
2023-01-17T23:35:14.631Z,33.57
2023-01-17T23:38:00.165Z,32.80
2023-01-17T23:40:34.390Z,33.23
2023-01-17T23:43:19.591Z,32.73
2023-01-17T23:45:46.535Z,33.33
2023-01-17T23:48:13.306Z,32.23
2023-01-17T23:50:44.418Z,32.20
2023-01-17T23:53:24.353Z,31.30
2023-01-17T23:55:54.443Z,30.37
2023-01-17T23:58:24.695Z,32.03
